createdAt,value
2022-09-21T00:00:24.237Z,1.73
2022-09-21T00:02:25.693Z,1.30
2022-09-21T00:04:33.424Z,1.58
2022-09-21T00:06:41.019Z,1.13
2022-09-21T00:08:52.541Z,1.55
2022-09-21T00:11:04.921Z,1.25
2022-09-21T00:13:17.434Z,1.35
2022-09-21T00:15:29.272Z,1.13
2022-09-21T00:17:41.874Z,1.30
2022-09-21T00:19:54.520Z,1.67
2022-09-21T00:22:07.154Z,1.60
2022-09-21T00:24:19.606Z,1.30
2022-09-21T00:26:30.095Z,1.75
2022-09-21T00:28:37.324Z,1.35
2022-09-21T00:30:47.975Z,1.38
2022-09-21T00:32:58.311Z,1.55
2022-09-21T00:35:09.113Z,1.83
2022-09-21T00:37:13.097Z,1.05
2022-09-21T00:39:14.781Z,1.30
2022-09-21T00:41:16.197Z,1.13
2022-09-21T00:43:18.583Z,1.48
2022-09-21T00:45:22.946Z,1.63
2022-09-21T00:47:38.998Z,1.38
2022-09-21T00:49:41.648Z,1.65
2022-09-21T00:51:43.732Z,1.25
2022-09-21T00:53:45.904Z,1.30
2022-09-21T00:55:51.200Z,1.45
2022-09-21T00:57:55.698Z,1.65
2022-09-21T00:59:58.729Z,1.98
2022-09-21T01:02:00.738Z,1.65
2022-09-21T01:04:02.706Z,1.48
2022-09-21T01:06:04.138Z,1.10
2022-09-21T01:08:07.408Z,1.35
2022-09-21T01:10:14.413Z,1.58
2022-09-21T01:12:30.957Z,1.40
2022-09-21T01:14:35.322Z,1.50
2022-09-21T01:16:52.098Z,1.42
2022-09-21T01:18:56.268Z,1.83
2022-09-21T01:23:11.146Z,1.58
2022-09-21T01:25:15.545Z,1.52
2022-09-21T01:27:31.069Z,1.63
2022-09-21T01:29:35.081Z,1.20
2022-09-21T01:31:40.200Z,1.60
2022-09-21T01:33:46.465Z,1.25
2022-09-21T01:35:49.268Z,1.30
2022-09-21T01:37:53.868Z,1.45
2022-09-21T01:39:56.497Z,1.40
2022-09-21T01:41:58.844Z,1.88
2022-09-21T01:44:08.314Z,1.58
2022-09-21T01:46:13.828Z,1.50
2022-09-21T01:48:15.752Z,1.73
2022-09-21T01:50:18.318Z,0.88
2022-09-21T01:52:19.942Z,1.30
2022-09-21T01:54:29.358Z,1.23
2022-09-21T01:56:34.768Z,1.10
2022-09-21T01:58:42.012Z,1.20
2022-09-21T02:00:46.472Z,1.35
2022-09-21T02:02:59.784Z,0.98
2022-09-21T02:05:02.321Z,1.02
2022-09-21T02:07:04.885Z,1.00
2022-09-21T02:09:07.203Z,1.30
2022-09-21T02:11:09.757Z,1.40
2022-09-21T02:13:14.342Z,1.15
2022-09-21T02:15:15.910Z,2.45
2022-09-21T02:17:17.386Z,1.48
2022-09-21T02:19:38.086Z,1.27
2022-09-21T02:21:45.598Z,2.55
2022-09-21T02:23:53.902Z,0.98
2022-09-21T02:25:59.281Z,1.10
2022-09-21T02:28:30.365Z,1.02
2022-09-21T02:30:33.597Z,1.15
2022-09-21T02:32:40.555Z,1.40
2022-09-21T02:34:42.012Z,1.30
2022-09-21T02:36:51.050Z,1.05
2022-09-21T02:38:54.133Z,1.38
2022-09-21T02:41:07.856Z,1.02
2022-09-21T02:43:12.145Z,1.08
2022-09-21T02:45:24.241Z,1.33
2022-09-21T02:47:31.447Z,1.10
2022-09-21T02:49:36.065Z,1.20
2022-09-21T02:51:41.674Z,1.20
2022-09-21T02:53:44.733Z,1.30
2022-09-21T02:55:47.044Z,1.80
2022-09-21T02:57:49.062Z,1.35
2022-09-21T02:59:51.091Z,1.15
2022-09-21T03:01:53.205Z,1.02
2022-09-21T03:03:54.793Z,0.63
2022-09-21T03:05:56.501Z,1.00
2022-09-21T03:07:58.959Z,1.02
2022-09-21T03:10:02.075Z,0.88
2022-09-21T03:12:10.764Z,0.90
2022-09-21T03:14:23.572Z,0.90
2022-09-21T03:16:36.986Z,0.87
2022-09-21T03:18:48.695Z,1.00
2022-09-21T03:20:54.390Z,0.60
2022-09-21T03:23:03.816Z,0.88
2022-09-21T03:25:14.802Z,1.02
2022-09-21T03:27:23.783Z,1.00
2022-09-21T03:29:33.782Z,1.02
2022-09-21T03:31:44.473Z,1.88
2022-09-21T03:33:55.906Z,0.90
2022-09-21T03:36:06.244Z,0.85
2022-09-21T03:38:10.308Z,0.80
2022-09-21T03:40:19.905Z,0.80
2022-09-21T03:42:23.595Z,0.50
2022-09-21T03:44:25.548Z,0.95
2022-09-21T03:46:27.912Z,0.85
2022-09-21T03:48:29.366Z,0.55
2022-09-21T03:50:31.027Z,1.20
2022-09-21T03:52:32.621Z,0.60
2022-09-21T03:54:34.470Z,0.70
2022-09-21T03:56:36.049Z,0.60
2022-09-21T03:58:37.515Z,0.90
2022-09-21T04:00:39.345Z,0.80
2022-09-21T04:02:41.062Z,0.82
2022-09-21T04:04:42.890Z,0.93
2022-09-21T04:06:46.185Z,0.90
2022-09-21T04:08:47.588Z,1.00
2022-09-21T04:10:49.278Z,0.98
2022-09-21T04:12:50.678Z,0.88
2022-09-21T04:14:52.161Z,1.10
2022-09-21T04:16:53.967Z,1.00
2022-09-21T04:18:55.440Z,0.68
2022-09-21T04:20:56.947Z,0.75
2022-09-21T04:22:59.729Z,0.85
2022-09-21T04:25:01.614Z,1.08
2022-09-21T04:27:03.106Z,0.68
2022-09-21T04:29:05.299Z,0.82
2022-09-21T04:31:06.952Z,0.63
2022-09-21T04:33:08.402Z,1.00
2022-09-21T04:35:10.319Z,0.98
2022-09-21T04:37:11.928Z,0.75
2022-09-21T04:39:13.603Z,1.10
2022-09-21T04:41:15.202Z,0.80
2022-09-21T04:43:19.632Z,0.70
2022-09-21T04:45:24.373Z,0.82
2022-09-21T04:47:25.873Z,1.25
2022-09-21T04:49:27.406Z,0.88
2022-09-21T04:51:28.829Z,1.20
2022-09-21T04:53:30.609Z,1.00
2022-09-21T04:55:32.252Z,1.10
2022-09-21T04:57:33.735Z,1.17
2022-09-21T04:59:35.153Z,0.80
2022-09-21T05:01:36.994Z,0.80
2022-09-21T05:03:38.820Z,1.20
2022-09-21T05:05:45.860Z,0.88
2022-09-21T05:07:47.217Z,1.23
2022-09-21T05:10:03.493Z,1.27
2022-09-21T05:12:05.177Z,1.13
2022-09-21T05:14:07.308Z,0.80
2022-09-21T05:16:09.465Z,0.88
2022-09-21T05:18:10.969Z,1.20
2022-09-21T05:20:12.420Z,1.00
2022-09-21T05:22:14.068Z,1.00
2022-09-21T05:24:15.508Z,1.02
2022-09-21T05:26:17.277Z,1.25
2022-09-21T05:28:19.404Z,0.80
2022-09-21T05:30:21.098Z,1.27
2022-09-21T05:32:26.198Z,1.45
2022-09-21T05:34:36.590Z,0.90
2022-09-21T05:36:57.206Z,0.77
2022-09-21T05:38:58.668Z,0.88
2022-09-21T05:41:00.663Z,1.00
2022-09-21T05:43:02.262Z,1.58
2022-09-21T05:45:04.530Z,0.90
2022-09-21T05:47:28.104Z,0.95
2022-09-21T05:49:32.360Z,0.90
2022-09-21T05:51:33.768Z,1.17
2022-09-21T05:53:38.278Z,0.88
2022-09-21T05:55:45.722Z,1.50
2022-09-21T05:57:54.546Z,0.90
2022-09-21T06:00:14.375Z,0.93
2022-09-21T06:02:30.934Z,0.70
2022-09-21T06:04:32.519Z,0.73
2022-09-21T06:06:34.129Z,1.17
2022-09-21T06:08:35.913Z,1.20
2022-09-21T06:10:37.350Z,0.90
2022-09-21T06:12:39.392Z,0.45
2022-09-21T06:14:40.838Z,0.82
2022-09-21T06:16:43.307Z,0.90
2022-09-21T06:18:46.936Z,1.40
2022-09-21T06:20:57.232Z,1.40
2022-09-21T06:23:13.199Z,1.08
2022-09-21T06:25:26.535Z,0.85
2022-09-21T06:27:36.414Z,1.83
2022-09-21T06:29:43.812Z,1.35
2022-09-21T06:31:54.187Z,0.93
2022-09-21T06:34:10.092Z,1.00
2022-09-21T06:36:23.677Z,1.20
2022-09-21T06:40:47.624Z,1.08
2022-09-21T06:42:59.194Z,1.13
2022-09-21T06:45:11.911Z,1.00
2022-09-21T06:47:24.810Z,1.05
2022-09-21T06:49:28.782Z,1.58
2022-09-21T06:51:30.361Z,1.40
2022-09-21T06:53:32.804Z,1.77
2022-09-21T06:55:34.853Z,1.75
2022-09-21T06:57:38.915Z,1.55
2022-09-21T06:59:40.461Z,1.70
2022-09-21T07:01:42.102Z,1.85
2022-09-21T07:03:44.255Z,1.27
2022-09-21T07:05:46.251Z,1.67
2022-09-21T07:07:53.231Z,1.70
2022-09-21T07:10:14.370Z,2.53
2022-09-21T07:12:16.614Z,1.75
2022-09-21T07:14:18.095Z,1.52
2022-09-21T07:16:19.750Z,1.50
2022-09-21T07:18:21.691Z,1.52
2022-09-21T07:20:23.964Z,1.58
2022-09-21T07:22:25.576Z,1.88
2022-09-21T07:24:27.017Z,2.28
2022-09-21T07:26:28.845Z,1.80
2022-09-21T07:28:31.003Z,2.03
2022-09-21T07:30:32.370Z,1.90
2022-09-21T07:32:34.771Z,2.08
2022-09-21T07:34:37.204Z,2.08
2022-09-21T07:36:38.674Z,2.00
2022-09-21T07:38:41.721Z,2.00
2022-09-21T07:40:43.293Z,2.13
2022-09-21T07:42:45.251Z,2.20
2022-09-21T07:44:47.240Z,2.63
2022-09-21T07:46:49.218Z,3.63
2022-09-21T07:48:53.219Z,2.40
2022-09-21T07:50:54.928Z,3.00
2022-09-21T07:52:56.367Z,3.22
2022-09-21T07:54:57.978Z,3.15
2022-09-21T07:57:18.315Z,3.15
2022-09-21T07:59:20.481Z,2.90
2022-09-21T08:01:22.587Z,3.17
2022-09-21T08:03:24.361Z,2.72
2022-09-21T08:05:26.195Z,3.63
2022-09-21T08:07:28.379Z,3.85
2022-09-21T08:09:29.902Z,3.65
2022-09-21T08:11:33.333Z,4.43
2022-09-21T08:13:34.928Z,3.55
2022-09-21T08:15:51.369Z,4.18
2022-09-21T08:17:56.987Z,3.53
2022-09-21T08:19:58.767Z,3.92
2022-09-21T08:22:00.285Z,4.00
2022-09-21T08:24:01.834Z,3.85
2022-09-21T08:26:06.709Z,4.50
2022-09-21T08:28:09.992Z,3.90
2022-09-21T08:30:13.840Z,3.85
2022-09-21T08:32:33.033Z,3.97
2022-09-21T08:34:36.954Z,4.80
2022-09-21T08:36:38.687Z,4.53
2022-09-21T08:38:40.409Z,3.97
2022-09-21T08:40:42.224Z,4.57
2022-09-21T08:42:53.598Z,4.75
2022-09-21T08:44:57.903Z,3.70
2022-09-21T08:47:09.744Z,3.70
2022-09-21T08:49:13.874Z,3.95
2022-09-21T08:51:17.681Z,4.00
2022-09-21T08:53:19.398Z,3.92
2022-09-21T08:55:21.324Z,3.55
2022-09-21T08:57:26.180Z,4.22
2022-09-21T08:59:28.488Z,4.00
2022-09-21T09:01:49.055Z,4.05
2022-09-21T09:04:11.761Z,5.15
2022-09-21T09:06:26.794Z,4.00
2022-09-21T09:08:28.380Z,4.28
2022-09-21T09:10:48.587Z,3.80
2022-09-21T09:13:15.372Z,4.38
2022-09-21T09:15:37.257Z,3.72
2022-09-21T09:17:44.946Z,3.55
2022-09-21T09:19:48.557Z,4.18
2022-09-21T09:21:50.952Z,3.50
2022-09-21T09:24:02.242Z,3.75
2022-09-21T09:26:31.026Z,4.07
2022-09-21T09:28:35.696Z,4.15
2022-09-21T09:30:38.903Z,4.00
2022-09-21T09:33:28.287Z,3.33
2022-09-21T09:35:44.975Z,3.20
2022-09-21T09:37:48.964Z,3.53
2022-09-21T09:39:57.729Z,3.63
2022-09-21T09:42:04.418Z,3.08
2022-09-21T09:44:23.042Z,2.58
2022-09-21T09:46:32.661Z,3.03
2022-09-21T09:48:45.324Z,3.35
2022-09-21T09:50:49.126Z,3.45
2022-09-21T09:52:57.832Z,3.30
2022-09-21T09:55:00.346Z,2.80
2022-09-21T09:57:05.838Z,3.30
2022-09-21T09:59:12.810Z,2.97
2022-09-21T10:01:36.565Z,2.75
2022-09-21T10:03:38.483Z,2.65
2022-09-21T10:05:41.514Z,2.78
2022-09-21T10:07:45.964Z,2.13
2022-09-21T10:09:47.624Z,2.17
2022-09-21T10:11:49.549Z,2.00
2022-09-21T10:13:52.632Z,2.05
2022-09-21T10:15:56.112Z,2.40
2022-09-21T10:18:26.781Z,2.20
2022-09-21T10:20:30.931Z,2.25
2022-09-21T10:22:32.650Z,1.90
2022-09-21T10:24:36.766Z,2.55
2022-09-21T10:26:38.257Z,1.42
2022-09-21T10:28:55.467Z,1.58
2022-09-21T10:31:08.721Z,1.85
2022-09-21T10:33:20.543Z,1.67
2022-09-21T10:35:22.371Z,1.70
2022-09-21T10:37:28.702Z,2.35
2022-09-21T10:39:31.922Z,2.38
2022-09-21T10:41:33.425Z,1.88
2022-09-21T10:43:39.899Z,2.25
2022-09-21T10:45:52.546Z,1.98
2022-09-21T10:48:20.084Z,2.25
2022-09-21T10:50:29.427Z,2.00
2022-09-21T10:52:35.956Z,2.00
2022-09-21T10:54:39.873Z,1.55
2022-09-21T10:59:02.517Z,1.95
2022-09-21T11:01:11.491Z,1.63
2022-09-21T11:03:39.310Z,1.55
2022-09-21T11:05:41.797Z,1.50
2022-09-21T11:07:49.806Z,1.75
2022-09-21T11:10:09.946Z,1.60
2022-09-21T11:16:14.382Z,1.20
2022-09-21T11:18:22.101Z,1.50
2022-09-21T11:40:41.263Z,1.85
2022-09-21T11:42:49.316Z,1.67
2022-09-21T11:44:56.009Z,1.43
2022-09-21T12:50:52.335Z,1.50
2022-09-21T13:30:11.699Z,1.08
2022-09-21T13:32:13.997Z,1.30
2022-09-21T13:34:15.860Z,1.05
2022-09-21T13:36:30.789Z,1.00
2022-09-21T13:38:41.610Z,1.10
2022-09-21T13:40:49.582Z,1.02
2022-09-21T13:42:51.050Z,1.00
2022-09-21T13:44:52.405Z,1.10
2022-09-21T13:46:54.281Z,0.88
2022-09-21T13:48:55.825Z,1.27
2022-09-21T13:50:58.508Z,0.95
2022-09-21T13:53:02.094Z,1.27
2022-09-21T13:55:05.596Z,1.02
2022-09-21T13:57:09.346Z,1.45
2022-09-21T14:01:42.412Z,1.17
2022-09-21T14:03:40.861Z,1.30
2022-09-21T14:07:46.881Z,1.23
2022-09-21T14:09:56.382Z,1.40
2022-09-21T14:12:02.285Z,2.08
2022-09-21T14:14:18.286Z,1.95
2022-09-21T14:16:29.166Z,1.52
2022-09-21T14:18:37.733Z,1.60
2022-09-21T14:20:39.785Z,1.67
2022-09-21T14:22:42.654Z,1.65
2022-09-21T14:24:44.818Z,1.55
2022-09-21T14:26:50.271Z,1.20
2022-09-21T14:28:52.140Z,1.60
2022-09-21T14:30:56.396Z,2.10
2022-09-21T14:32:57.800Z,1.80
2022-09-21T14:35:12.356Z,2.33
2022-09-21T14:37:19.788Z,1.70
2022-09-21T14:39:24.137Z,1.52
2022-09-21T14:41:27.799Z,1.88
2022-09-21T14:43:36.161Z,1.92
2022-09-21T14:45:37.584Z,1.70
2022-09-21T14:47:48.896Z,1.77
2022-09-21T14:49:50.502Z,1.55
2022-09-21T14:52:18.253Z,1.60
2022-09-21T14:54:37.288Z,1.65
2022-09-21T14:56:57.557Z,1.55
2022-09-21T14:59:07.633Z,1.70
2022-09-21T15:01:21.292Z,1.73
2022-09-21T15:03:25.534Z,1.65
2022-09-21T15:05:31.457Z,1.77
2022-09-21T15:08:12.125Z,1.83
2022-09-21T15:10:32.126Z,1.83
2022-09-21T15:12:36.942Z,1.60
2022-09-21T15:14:43.499Z,1.52
2022-09-21T15:16:47.257Z,1.58
2022-09-21T15:18:51.365Z,2.00
2022-09-21T15:21:01.202Z,1.67
2022-09-21T15:23:04.282Z,1.65
2022-09-21T15:25:12.052Z,1.92
2022-09-21T15:27:17.636Z,1.73
2022-09-21T15:29:24.682Z,1.48
2022-09-21T15:31:32.133Z,1.55
2022-09-21T15:33:45.066Z,1.35
2022-09-21T15:35:47.338Z,1.87
2022-09-21T15:37:57.432Z,1.80
2022-09-21T15:40:21.024Z,1.38
2022-09-21T15:42:40.987Z,1.60
2022-09-21T15:44:52.605Z,1.98
2022-09-21T15:47:05.049Z,1.60
2022-09-21T15:49:14.619Z,1.42
2022-09-21T15:51:38.350Z,1.20
2022-09-21T15:54:00.854Z,1.50
2022-09-21T15:56:08.158Z,1.73
2022-09-21T15:58:32.336Z,1.67
2022-09-21T16:00:41.074Z,1.83
2022-09-21T16:03:05.250Z,1.77
2022-09-21T16:05:18.225Z,2.05
2022-09-21T16:09:31.678Z,1.65
2022-09-21T16:11:35.868Z,1.50
2022-09-21T16:13:55.736Z,1.90
2022-09-21T16:16:01.627Z,1.83
2022-09-21T16:18:05.167Z,1.70
2022-09-21T16:20:10.574Z,1.60
2022-09-21T16:22:13.002Z,1.48
2022-09-21T16:24:19.129Z,1.52
2022-09-21T16:26:22.482Z,1.30
2022-09-21T16:28:35.864Z,1.70
2022-09-21T16:30:38.185Z,1.30
2022-09-21T16:32:39.961Z,1.52
2022-09-21T16:34:42.181Z,1.70
2022-09-21T16:36:44.533Z,1.88
2022-09-21T16:38:50.285Z,1.52
2022-09-21T16:40:54.034Z,1.80
2022-09-21T16:42:55.992Z,1.10
2022-09-21T16:44:57.894Z,2.10
2022-09-21T16:47:00.666Z,2.08
2022-09-21T16:49:02.235Z,1.52
2022-09-21T16:51:03.963Z,1.70
2022-09-21T16:53:05.682Z,1.55
2022-09-21T16:55:07.356Z,1.67
2022-09-21T16:57:11.457Z,1.60
2022-09-21T16:59:16.279Z,1.42
2022-09-21T17:01:20.718Z,1.92
2022-09-21T17:03:22.941Z,2.03
2022-09-21T17:05:25.833Z,1.58
2022-09-21T17:07:28.111Z,1.47
2022-09-21T17:09:35.305Z,1.48
2022-09-21T17:11:37.089Z,1.42
2022-09-21T17:13:38.554Z,1.50
2022-09-21T17:15:48.052Z,2.13
2022-09-21T17:17:50.420Z,1.40
2022-09-21T17:19:53.729Z,1.30
2022-09-21T17:21:55.530Z,1.20
2022-09-21T17:23:58.039Z,1.52
2022-09-21T17:25:59.641Z,2.10
2022-09-21T17:28:02.002Z,1.65
2022-09-21T17:30:03.779Z,1.30
2022-09-21T17:32:10.368Z,1.02
2022-09-21T17:34:12.391Z,1.48
2022-09-21T17:36:14.883Z,1.42
2022-09-21T17:38:16.677Z,1.10
2022-09-21T17:40:18.429Z,1.73
2022-09-21T17:42:23.014Z,1.35
2022-09-21T17:44:44.277Z,0.90
2022-09-21T17:46:45.760Z,1.30
2022-09-21T17:48:47.493Z,1.27
2022-09-21T17:50:49.607Z,1.27
2022-09-21T17:53:09.918Z,1.40
2022-09-21T17:55:11.960Z,1.40
2022-09-21T17:57:28.564Z,1.20
2022-09-21T17:59:32.731Z,1.30
2022-09-21T18:01:39.955Z,0.93
2022-09-21T18:03:43.098Z,1.45
2022-09-21T18:05:44.835Z,1.47
2022-09-21T18:07:46.546Z,1.35
2022-09-21T18:09:48.117Z,1.92
2022-09-21T18:12:01.829Z,1.20
2022-09-21T18:14:12.555Z,2.00
2022-09-21T18:16:46.153Z,1.40
2022-09-21T18:19:02.476Z,1.67
2022-09-21T18:21:05.045Z,1.85
2022-09-21T18:23:21.153Z,1.92
2022-09-21T18:25:26.854Z,1.63
2022-09-21T18:27:28.699Z,1.38
2022-09-21T18:29:40.885Z,1.67
2022-09-21T18:31:49.737Z,1.60
2022-09-21T18:33:58.872Z,1.52
2022-09-21T18:36:16.874Z,1.40
2022-09-21T18:38:36.221Z,1.95
2022-09-21T18:41:02.817Z,1.88
2022-09-21T18:43:34.963Z,1.70
2022-09-21T18:45:54.781Z,1.52
2022-09-21T18:48:31.896Z,1.48
2022-09-21T18:51:05.627Z,1.50
2022-09-21T18:53:30.859Z,1.67
2022-09-21T18:55:39.642Z,2.10
2022-09-21T18:57:54.114Z,1.73
2022-09-21T19:00:03.288Z,2.10
2022-09-21T19:02:20.249Z,3.67
2022-09-21T19:04:31.199Z,5.90
2022-09-21T19:06:50.735Z,5.32
2022-09-21T19:08:56.930Z,2.47
2022-09-21T19:11:09.593Z,2.38
2022-09-21T19:13:49.646Z,2.08
2022-09-21T19:16:09.255Z,2.25
2022-09-21T19:18:28.424Z,1.95
2022-09-21T19:20:40.495Z,1.70
2022-09-21T19:22:50.566Z,2.03
2022-09-21T19:24:56.106Z,1.80
2022-09-21T19:27:09.065Z,2.05
2022-09-21T19:29:27.892Z,2.33
2022-09-21T19:31:29.657Z,1.90
2022-09-21T19:33:49.426Z,1.98
2022-09-21T19:35:52.414Z,1.85
2022-09-21T19:37:55.096Z,1.85
2022-09-21T19:39:56.962Z,2.22
2022-09-21T19:41:58.370Z,2.15
2022-09-21T19:43:59.942Z,1.90
2022-09-21T19:46:17.271Z,1.88
2022-09-21T19:48:20.333Z,2.60
2022-09-21T19:50:23.783Z,3.10
2022-09-21T19:52:30.453Z,2.95
2022-09-21T19:54:50.708Z,2.00
2022-09-21T19:57:10.562Z,2.70
2022-09-21T19:59:30.942Z,2.60
2022-09-21T20:01:35.428Z,2.20
2022-09-21T20:03:44.100Z,2.72
2022-09-21T20:05:48.850Z,3.40
2022-09-21T20:07:58.192Z,5.95
2022-09-21T20:10:09.766Z,4.55
2022-09-21T20:12:37.269Z,4.45
2022-09-21T20:14:48.385Z,7.28
2022-09-21T20:16:50.477Z,7.22
2022-09-21T20:18:59.314Z,7.10
2022-09-21T20:21:01.133Z,6.93
2022-09-21T20:23:02.810Z,3.17
2022-09-21T20:25:20.411Z,2.47
2022-09-21T20:27:25.059Z,2.67
2022-09-21T20:29:26.799Z,2.72
2022-09-21T20:31:28.302Z,3.05
2022-09-21T20:33:31.460Z,2.85
2022-09-21T20:35:33.380Z,2.57
2022-09-21T20:37:34.787Z,2.53
2022-09-21T20:39:38.048Z,2.60
2022-09-21T20:41:40.116Z,2.38
2022-09-21T20:43:42.149Z,2.25
2022-09-21T20:45:47.715Z,2.40
2022-09-21T20:47:52.694Z,2.15
2022-09-21T20:49:54.098Z,2.08
2022-09-21T20:51:55.657Z,2.05
2022-09-21T20:53:57.328Z,2.17
2022-09-21T20:56:01.038Z,2.20
2022-09-21T20:58:03.075Z,2.45
2022-09-21T21:00:06.135Z,2.28
2022-09-21T21:02:09.520Z,2.42
2022-09-21T21:04:12.367Z,2.63
2022-09-21T21:06:14.930Z,2.60
2022-09-21T21:08:16.325Z,2.42
2022-09-21T21:10:19.057Z,2.90
2022-09-21T21:12:20.411Z,2.20
2022-09-21T21:14:21.926Z,2.28
2022-09-21T21:16:23.576Z,1.83
2022-09-21T21:18:25.614Z,2.10
2022-09-21T21:20:29.034Z,2.28
2022-09-21T21:22:30.443Z,2.05
2022-09-21T21:24:41.123Z,2.08
2022-09-21T21:27:01.202Z,1.70
2022-09-21T21:29:04.514Z,1.50
2022-09-21T21:31:06.303Z,1.65
2022-09-21T21:33:07.773Z,1.80
2022-09-21T21:35:09.287Z,1.92
2022-09-21T21:37:11.401Z,2.30
2022-09-21T21:39:12.865Z,1.38
2022-09-21T21:41:14.819Z,1.63
2022-09-21T21:43:16.529Z,1.50
2022-09-21T21:45:21.774Z,1.77
2022-09-21T21:47:40.661Z,1.35
2022-09-21T21:49:59.779Z,1.83
2022-09-21T21:52:13.146Z,1.52
2022-09-21T21:54:31.502Z,2.78
2022-09-21T21:56:36.882Z,1.92
2022-09-21T21:58:47.576Z,2.00
2022-09-21T22:00:57.934Z,1.35
2022-09-21T22:03:10.021Z,2.10
2022-09-21T22:05:18.268Z,1.95
2022-09-21T22:07:30.615Z,1.73
2022-09-21T22:09:35.565Z,1.95
2022-09-21T22:11:50.633Z,3.47
2022-09-21T22:14:01.898Z,1.60
2022-09-21T22:16:12.074Z,1.70
2022-09-21T22:18:16.217Z,1.85
2022-09-21T22:20:17.701Z,1.88
2022-09-21T22:22:19.275Z,2.60
2022-09-21T22:24:21.159Z,2.53
2022-09-21T22:26:23.055Z,2.30
2022-09-21T22:28:24.461Z,1.80
2022-09-21T22:30:26.170Z,1.75
2022-09-21T22:32:27.661Z,1.90
2022-09-21T22:34:29.401Z,1.45
2022-09-21T22:36:31.732Z,2.05
2022-09-21T22:38:33.997Z,1.70
2022-09-21T22:40:35.558Z,2.25
2022-09-21T22:42:37.081Z,1.60
2022-09-21T22:44:38.510Z,2.60
2022-09-21T22:46:40.200Z,1.70
2022-09-21T22:48:41.881Z,1.52
2022-09-21T22:50:43.483Z,1.60
2022-09-21T22:52:45.194Z,1.90
2022-09-21T22:54:46.798Z,1.52
2022-09-21T22:56:48.261Z,1.60
2022-09-21T22:58:50.862Z,1.67
2022-09-21T23:00:52.389Z,1.25
2022-09-21T23:02:55.009Z,1.80
2022-09-21T23:04:56.434Z,1.80
2022-09-21T23:06:57.937Z,2.22
2022-09-21T23:08:59.937Z,1.50
2022-09-21T23:11:26.872Z,1.60
2022-09-21T23:13:28.327Z,1.38
2022-09-21T23:15:31.197Z,1.88
2022-09-21T23:17:32.680Z,2.40
2022-09-21T23:19:35.298Z,2.13
2022-09-21T23:21:37.854Z,1.90
2022-09-21T23:23:40.104Z,1.67
2022-09-21T23:25:41.577Z,1.77
2022-09-21T23:27:42.974Z,1.80
2022-09-21T23:29:44.618Z,1.48
2022-09-21T23:31:46.596Z,1.95
2022-09-21T23:33:49.893Z,1.25
2022-09-21T23:35:51.564Z,2.17
2022-09-21T23:37:53.026Z,1.83
2022-09-21T23:39:54.445Z,1.65
2022-09-21T23:41:56.499Z,1.70
2022-09-21T23:43:58.374Z,1.70
2022-09-21T23:46:00.405Z,1.35
2022-09-21T23:48:01.898Z,1.63
2022-09-21T23:50:03.400Z,2.00
2022-09-21T23:52:04.921Z,1.63
2022-09-21T23:54:07.083Z,2.45
2022-09-21T23:56:11.140Z,5.15
2022-09-21T23:58:12.589Z,4.05
